createdAt,value
2019-01-06T00:00:23.820Z,100.00
2019-01-06T00:05:52.499Z,100.00
2019-01-06T00:11:33.325Z,100.00
2019-01-06T00:16:57.576Z,100.00
2019-01-06T00:22:20.542Z,100.00
2019-01-06T00:27:48.291Z,100.00
2019-01-06T00:33:11.391Z,99.47
2019-01-06T00:38:34.263Z,97.87
2019-01-06T00:43:55.246Z,99.56
2019-01-06T00:49:18.132Z,99.90
2019-01-06T00:54:41.080Z,99.44
2019-01-06T01:00:06.156Z,100.00
2019-01-06T01:05:29.854Z,100.00
2019-01-06T01:10:53.079Z,99.84
2019-01-06T01:16:17.074Z,100.00
2019-01-06T01:21:39.878Z,100.00
2019-01-06T01:27:03.982Z,100.00
2019-01-06T01:32:33.835Z,100.00
2019-01-06T01:37:56.258Z,100.00
2019-01-06T01:43:38.557Z,96.95
2019-01-06T01:49:05.878Z,94.85
2019-01-06T01:54:36.052Z,92.99
2019-01-06T02:00:12.302Z,92.21
2019-01-06T02:05:51.710Z,91.56
2019-01-06T02:11:12.799Z,92.31
2019-01-06T02:16:42.694Z,91.56
2019-01-06T02:22:19.146Z,93.25
2019-01-06T02:27:42.109Z,92.91
2019-01-06T02:33:21.292Z,93.39
2019-01-06T02:38:43.096Z,93.82
2019-01-06T02:44:05.979Z,94.01
2019-01-06T02:49:28.760Z,93.76
2019-01-06T02:55:07.750Z,95.17
2019-01-06T03:06:04.996Z,94.01
2019-01-06T03:11:27.780Z,93.58
2019-01-06T03:16:51.696Z,92.48
2019-01-06T03:22:14.414Z,92.65
2019-01-06T03:27:50.556Z,93.65
2019-01-06T03:33:17.896Z,92.48
2019-01-06T03:38:44.655Z,93.39
2019-01-06T03:44:07.521Z,94.79
2019-01-06T03:49:34.570Z,95.29
2019-01-06T03:54:58.510Z,95.51
2019-01-06T04:00:31.832Z,96.17
2019-01-06T04:05:54.922Z,97.25
2019-01-06T04:11:17.532Z,98.47
2019-01-06T04:16:40.356Z,97.52
2019-01-06T04:22:20.020Z,97.04
2019-01-06T04:27:53.269Z,96.80
2019-01-06T04:33:26.239Z,96.93
2019-01-06T04:38:53.562Z,96.82
2019-01-06T04:44:17.560Z,96.70
2019-01-06T04:49:51.638Z,96.50
2019-01-06T04:55:11.056Z,95.51
2019-01-06T05:00:50.666Z,95.68
2019-01-06T05:06:20.496Z,95.79
2019-01-06T05:11:51.494Z,96.64
2019-01-06T05:17:27.880Z,96.34
2019-01-06T05:22:53.042Z,96.31
2019-01-06T05:28:15.909Z,96.22
2019-01-06T05:33:45.860Z,96.11
2019-01-06T05:39:08.940Z,96.00
2019-01-06T05:44:32.883Z,97.33
2019-01-06T05:49:52.101Z,95.93
2019-01-06T05:55:25.302Z,96.39
2019-01-06T06:00:49.274Z,97.46
2019-01-06T06:06:04.652Z,96.50
2019-01-06T06:11:27.326Z,96.28
2019-01-06T06:17:00.340Z,96.67
2019-01-06T06:22:19.568Z,96.91
2019-01-06T06:27:49.616Z,97.43
2019-01-06T06:33:12.502Z,97.30
2019-01-06T06:38:45.542Z,96.86
2019-01-06T06:44:32.136Z,96.78
2019-01-06T06:50:16.505Z,97.37
2019-01-06T06:55:48.777Z,98.32
2019-01-06T07:01:29.578Z,97.68
2019-01-06T07:07:12.204Z,97.50
2019-01-06T07:12:34.798Z,97.50
2019-01-06T07:18:11.052Z,97.57
2019-01-06T07:23:49.522Z,97.59
2019-01-06T07:29:13.454Z,98.94
2019-01-06T07:34:40.730Z,99.00
2019-01-06T07:40:14.383Z,98.23
2019-01-06T07:45:59.190Z,98.15
2019-01-06T07:51:21.987Z,98.33
2019-01-06T07:56:47.548Z,98.18
2019-01-06T08:02:15.120Z,98.33
2019-01-06T08:07:47.060Z,98.58
2019-01-06T08:13:09.784Z,97.71
2019-01-06T08:18:49.170Z,96.83
2019-01-06T08:24:12.307Z,95.65
2019-01-06T08:29:42.412Z,95.03
2019-01-06T08:35:05.148Z,95.19
2019-01-06T08:40:33.094Z,94.54
2019-01-06T08:45:56.022Z,94.94
2019-01-06T08:51:21.058Z,92.88
2019-01-06T08:56:49.874Z,93.52
2019-01-06T09:02:17.890Z,92.09
2019-01-06T09:07:50.278Z,91.55
2019-01-06T09:13:17.980Z,92.36
2019-01-06T09:18:41.146Z,91.67
2019-01-06T09:24:17.436Z,91.78
2019-01-06T09:29:56.821Z,90.87
2019-01-06T09:35:20.165Z,90.50
2019-01-06T09:40:43.356Z,88.68
2019-01-06T09:46:19.776Z,87.96
2019-01-06T09:51:42.804Z,86.58
2019-01-06T09:57:05.897Z,86.20
2019-01-06T10:02:32.793Z,86.02
2019-01-06T10:07:57.233Z,85.53
2019-01-06T10:13:33.281Z,84.79
2019-01-06T10:19:06.304Z,85.37
2019-01-06T10:24:30.539Z,84.46
2019-01-06T10:29:57.678Z,83.68
2019-01-06T10:35:31.121Z,82.35
2019-01-06T10:41:10.578Z,81.88
2019-01-06T10:46:35.534Z,80.87
2019-01-06T10:52:08.846Z,79.17
2019-01-06T10:57:31.920Z,79.53
2019-01-06T11:03:01.513Z,80.05
2019-01-06T11:08:28.644Z,78.81
2019-01-06T11:13:51.354Z,79.88
2019-01-06T11:19:33.663Z,78.51
2019-01-06T11:24:55.524Z,78.87
2019-01-06T11:30:18.656Z,80.00
2019-01-06T11:35:57.949Z,79.32
2019-01-06T11:41:32.187Z,78.07
2019-01-06T11:47:04.276Z,77.28
2019-01-06T11:52:38.968Z,75.18
2019-01-06T11:58:02.139Z,74.21
2019-01-06T12:03:29.075Z,75.71
2019-01-06T12:08:55.557Z,76.65
2019-01-06T12:14:19.585Z,78.25
2019-01-06T12:19:58.730Z,78.23
2019-01-06T12:25:25.706Z,76.66
2019-01-06T12:30:44.050Z,77.94
2019-01-06T12:36:16.715Z,79.09
2019-01-06T12:41:40.863Z,78.73
2019-01-06T12:47:03.713Z,78.84
2019-01-06T12:52:27.916Z,80.17
2019-01-06T12:57:51.971Z,79.36
2019-01-06T13:03:14.984Z,78.88
2019-01-06T13:08:38.022Z,77.96
2019-01-06T13:13:57.368Z,78.58
2019-01-06T13:19:20.595Z,78.23
2019-01-06T13:24:43.747Z,79.16
2019-01-06T13:30:10.558Z,79.58
2019-01-06T13:35:47.385Z,79.43
2019-01-06T13:41:12.564Z,80.54
2019-01-06T13:46:32.439Z,79.15
2019-01-06T13:51:56.624Z,77.59
2019-01-06T13:57:20.396Z,78.86
2019-01-06T14:02:46.701Z,79.84
2019-01-06T14:08:10.324Z,81.43
2019-01-06T14:13:34.562Z,83.29
2019-01-06T14:18:57.761Z,84.03
2019-01-06T14:24:31.606Z,84.80
2019-01-06T14:30:01.918Z,86.21
2019-01-06T14:35:24.894Z,86.96
2019-01-06T14:40:52.159Z,86.94
2019-01-06T14:46:30.945Z,87.63
2019-01-06T14:51:54.225Z,88.37
2019-01-06T14:57:16.952Z,88.97
2019-01-06T15:02:41.249Z,88.80
2019-01-06T15:08:03.982Z,89.10
2019-01-06T15:13:34.202Z,89.31
2019-01-06T15:18:56.911Z,90.20
2019-01-06T15:24:19.950Z,90.40
2019-01-06T15:30:00.640Z,90.91
2019-01-06T15:35:27.990Z,90.99
2019-01-06T15:40:54.948Z,91.78
2019-01-06T15:46:18.274Z,91.67
2019-01-06T15:51:40.977Z,92.19
2019-01-06T15:57:14.338Z,92.24
2019-01-06T16:02:37.184Z,92.24
2019-01-06T16:08:09.801Z,92.17
2019-01-06T16:13:39.957Z,92.67
2019-01-06T16:19:14.195Z,92.26
2019-01-06T16:24:44.330Z,93.01
2019-01-06T16:30:02.366Z,93.33
2019-01-06T16:35:36.004Z,94.01
2019-01-06T16:41:06.439Z,94.30
2019-01-06T16:46:29.547Z,94.68
2019-01-06T16:52:00.127Z,94.67
2019-01-06T16:57:24.689Z,95.23
2019-01-06T17:02:44.483Z,95.69
2019-01-06T17:08:07.862Z,95.13
2019-01-06T17:13:30.827Z,95.69
2019-01-06T17:19:00.753Z,95.56
2019-01-06T17:24:13.915Z,95.62
2019-01-06T17:29:40.875Z,97.26
2019-01-06T17:35:01.604Z,97.55
2019-01-06T17:40:42.223Z,98.11
2019-01-06T17:46:16.405Z,98.38
2019-01-06T17:51:45.033Z,98.90
2019-01-06T17:57:15.399Z,99.36
2019-01-06T18:02:38.088Z,99.49
2019-01-06T18:08:12.827Z,100.00
2019-01-06T18:13:49.197Z,99.80
2019-01-06T18:19:16.390Z,99.67
2019-01-06T18:24:43.481Z,99.50
2019-01-06T18:30:06.182Z,99.33
2019-01-06T18:35:29.302Z,99.75
2019-01-06T18:40:56.564Z,100.00
2019-01-06T18:46:32.742Z,100.00
2019-01-06T18:51:55.417Z,100.00
2019-01-06T18:57:19.651Z,100.00
2019-01-06T19:02:42.873Z,99.91
2019-01-06T19:08:13.157Z,99.91
2019-01-06T19:13:42.369Z,99.67
2019-01-06T19:19:24.953Z,99.17
2019-01-06T19:24:52.775Z,99.70
2019-01-06T19:30:23.566Z,99.81
2019-01-06T19:35:46.978Z,100.00
2019-01-06T19:47:26.949Z,100.00
2019-01-06T19:52:50.756Z,100.00
2019-01-06T19:58:14.275Z,100.00
2019-01-06T20:03:38.692Z,100.00
2019-01-06T20:09:01.469Z,100.00
2019-01-06T20:14:37.508Z,100.00
2019-01-06T20:20:19.935Z,100.00
2019-01-06T20:25:53.476Z,100.00
2019-01-06T20:31:15.128Z,100.00
2019-01-06T20:36:38.021Z,100.00
2019-01-06T20:41:58.825Z,100.00
2019-01-06T20:47:22.608Z,100.00
2019-01-06T20:52:45.744Z,100.00
2019-01-06T20:58:08.747Z,100.00
2019-01-06T21:03:29.469Z,100.00
2019-01-06T21:08:52.129Z,100.00
2019-01-06T21:14:28.518Z,100.00
2019-01-06T21:19:55.675Z,100.00
2019-01-06T21:25:31.984Z,100.00
2019-01-06T21:31:08.012Z,100.00
2019-01-06T21:36:47.549Z,100.00
2019-01-06T21:42:10.383Z,100.00
2019-01-06T21:47:33.652Z,100.00
2019-01-06T21:52:56.657Z,100.00
2019-01-06T21:58:27.176Z,100.00
2019-01-06T22:03:49.854Z,100.00
2019-01-06T22:09:12.648Z,100.00
2019-01-06T22:14:45.974Z,100.00
2019-01-06T22:20:13.602Z,100.00
2019-01-06T22:25:41.572Z,100.00
2019-01-06T22:31:25.028Z,100.00
2019-01-06T22:36:42.417Z,100.00
2019-01-06T22:42:05.157Z,100.00
2019-01-06T22:47:28.287Z,100.00
2019-01-06T22:52:55.391Z,100.00
2019-01-06T22:58:35.266Z,100.00
2019-01-06T23:03:59.624Z,100.00
2019-01-06T23:09:24.031Z,100.00
2019-01-06T23:14:51.208Z,100.00
2019-01-06T23:20:17.662Z,100.00
2019-01-06T23:25:40.395Z,100.00
2019-01-06T23:31:03.303Z,100.00
2019-01-06T23:36:39.775Z,100.00
2019-01-06T23:42:22.265Z,100.00
2019-01-06T23:48:01.705Z,100.00
2019-01-06T23:53:43.929Z,100.00
2019-01-06T23:59:16.983Z,100.00
